sensor_id;sensor_type;location;lat;lon;timestamp;pressure;altitude;pressure_sealevel;temperature;humidity
75991;BME280;64673;52.276;10.560;2023-02-16T00:01:20;101604.84;;;1.20;88.81
75991;BME280;64673;52.276;10.560;2023-02-16T00:03:46;101608.22;;;1.88;88.06
75991;BME280;64673;52.276;10.560;2023-02-16T00:06:12;101612.19;;;1.77;87.16
75991;BME280;64673;52.276;10.560;2023-02-16T00:08:41;101608.22;;;1.73;86.47
75991;BME280;64673;52.276;10.560;2023-02-16T00:11:17;101604.69;;;1.36;87.51
75991;BME280;64673;52.276;10.560;2023-02-16T00:14:02;101593.13;;;1.29;87.00
75991;BME280;64673;52.276;10.560;2023-02-16T00:16:28;101601.38;;;1.34;87.65
75991;BME280;64673;52.276;10.560;2023-02-16T00:18:54;101607.97;;;1.38;87.41
75991;BME280;64673;52.276;10.560;2023-02-16T00:21:19;101601.09;;;1.44;86.93
75991;BME280;64673;52.276;10.560;2023-02-16T00:23:45;101602.13;;;1.58;86.89
75991;BME280;64673;52.276;10.560;2023-02-16T00:26:21;101603.78;;;1.59;86.77
75991;BME280;64673;52.276;10.560;2023-02-16T00:28:51;101605.03;;;1.63;87.00
75991;BME280;64673;52.276;10.560;2023-02-16T00:31:22;101604.31;;;1.69;86.39
75991;BME280;64673;52.276;10.560;2023-02-16T00:33:50;101605.94;;;1.70;86.37
75991;BME280;64673;52.276;10.560;2023-02-16T00:36:16;101599.34;;;2.02;85.34
75991;BME280;64673;52.276;10.560;2023-02-16T00:38:41;101614.28;;;2.17;85.63
75991;BME280;64673;52.276;10.560;2023-02-16T00:41:14;101609.72;;;2.11;85.19
75991;BME280;64673;52.276;10.560;2023-02-16T00:44:00;101610.59;;;2.18;84.50
75991;BME280;64673;52.276;10.560;2023-02-16T00:46:25;101611.84;;;2.22;84.24
75991;BME280;64673;52.276;10.560;2023-02-16T00:48:52;101608.81;;;2.04;84.82
75991;BME280;64673;52.276;10.560;2023-02-16T00:51:17;101607.94;;;2.40;84.35
75991;BME280;64673;52.276;10.560;2023-02-16T00:53:42;101606.16;;;2.26;85.27
75991;BME280;64673;52.276;10.560;2023-02-16T00:56:10;101612.69;;;2.44;83.55
75991;BME280;64673;52.276;10.560;2023-02-16T00:58:37;101598.56;;;2.44;83.09
75991;BME280;64673;52.276;10.560;2023-02-16T01:01:12;101599.66;;;2.28;84.95
75991;BME280;64673;52.276;10.560;2023-02-16T01:03:39;101601.16;;;2.37;84.55
75991;BME280;64673;52.276;10.560;2023-02-16T01:06:05;101604.69;;;2.44;84.10
75991;BME280;64673;52.276;10.560;2023-02-16T01:08:49;101601.84;;;2.46;84.44
75991;BME280;64673;52.276;10.560;2023-02-16T01:11:33;101594.31;;;2.28;83.82
75991;BME280;64673;52.276;10.560;2023-02-16T01:13:58;101597.53;;;2.24;85.14
75991;BME280;64673;52.276;10.560;2023-02-16T01:16:29;101595.81;;;2.16;84.84
75991;BME280;64673;52.276;10.560;2023-02-16T01:18:57;101588.22;;;2.34;83.86
75991;BME280;64673;52.276;10.560;2023-02-16T01:21:22;101588.47;;;2.18;84.51
75991;BME280;64673;52.276;10.560;2023-02-16T01:23:47;101585.13;;;2.09;84.86
75991;BME280;64673;52.276;10.560;2023-02-16T01:26:15;101586.38;;;2.13;84.75
75991;BME280;64673;52.276;10.560;2023-02-16T01:28:42;101575.88;;;2.05;85.10
75991;BME280;64673;52.276;10.560;2023-02-16T01:31:09;101578.28;;;2.22;84.29
75991;BME280;64673;52.276;10.560;2023-02-16T01:33:35;101566.97;;;1.77;85.73
75991;BME280;64673;52.276;10.560;2023-02-16T01:36:00;101568.94;;;1.54;86.63
75991;BME280;64673;52.276;10.560;2023-02-16T01:38:27;101564.50;;;1.61;86.50
75991;BME280;64673;52.276;10.560;2023-02-16T01:43:32;101553.25;;;1.44;87.09
75991;BME280;64673;52.276;10.560;2023-02-16T01:46:11;101547.28;;;1.57;87.58
75991;BME280;64673;52.276;10.560;2023-02-16T01:48:37;101553.06;;;1.96;86.80
75991;BME280;64673;52.276;10.560;2023-02-16T01:51:06;101552.28;;;2.02;86.21
75991;BME280;64673;52.276;10.560;2023-02-16T01:56:49;101547.59;;;2.26;85.51
75991;BME280;64673;52.276;10.560;2023-02-16T02:01:59;101548.28;;;2.55;83.40
75991;BME280;64673;52.276;10.560;2023-02-16T02:04:32;101547.94;;;2.65;83.32
75991;BME280;64673;52.276;10.560;2023-02-16T02:07:32;101539.06;;;2.30;85.07
75991;BME280;64673;52.276;10.560;2023-02-16T02:10:03;101548.88;;;2.30;84.78
75991;BME280;64673;52.276;10.560;2023-02-16T02:12:52;101547.19;;;2.22;84.66
75991;BME280;64673;52.276;10.560;2023-02-16T02:15:24;101540.25;;;2.28;85.21
75991;BME280;64673;52.276;10.560;2023-02-16T02:17:51;101544.44;;;2.15;85.36
75991;BME280;64673;52.276;10.560;2023-02-16T02:20:45;101551.53;;;2.08;84.90
75991;BME280;64673;52.276;10.560;2023-02-16T02:35:08;101538.63;;;2.27;85.50
75991;BME280;64673;52.276;10.560;2023-02-16T02:37:43;101536.72;;;2.20;85.68
75991;BME280;64673;52.276;10.560;2023-02-16T02:45:38;101534.28;;;2.47;84.12
75991;BME280;64673;52.276;10.560;2023-02-16T02:48:05;101538.28;;;2.36;84.59
75991;BME280;64673;52.276;10.560;2023-02-16T02:50:36;101527.31;;;2.46;84.71
75991;BME280;64673;52.276;10.560;2023-02-16T02:53:06;101524.56;;;2.33;85.21
75991;BME280;64673;52.276;10.560;2023-02-16T02:55:34;101521.97;;;2.46;83.95
75991;BME280;64673;52.276;10.560;2023-02-16T02:58:21;101522.88;;;2.53;84.40
75991;BME280;64673;52.276;10.560;2023-02-16T03:01:07;101527.06;;;2.41;84.34
75991;BME280;64673;52.276;10.560;2023-02-16T03:03:46;101523.59;;;2.40;84.87
75991;BME280;64673;52.276;10.560;2023-02-16T03:06:23;101520.25;;;2.32;85.12
75991;BME280;64673;52.276;10.560;2023-02-16T03:08:54;101517.69;;;2.24;84.63
75991;BME280;64673;52.276;10.560;2023-02-16T03:11:25;101523.16;;;2.15;85.06
75991;BME280;64673;52.276;10.560;2023-02-16T03:16:57;101527.59;;;2.30;85.15
75991;BME280;64673;52.276;10.560;2023-02-16T03:19:43;101518.69;;;2.22;84.51
75991;BME280;64673;52.276;10.560;2023-02-16T03:22:28;101518.97;;;2.06;85.03
75991;BME280;64673;52.276;10.560;2023-02-16T03:25:13;101522.47;;;2.07;85.99
75991;BME280;64673;52.276;10.560;2023-02-16T03:27:59;101514.28;;;2.08;85.27
75991;BME280;64673;52.276;10.560;2023-02-16T03:30:45;101510.53;;;2.03;85.71
75991;BME280;64673;52.276;10.560;2023-02-16T03:33:11;101510.13;;;1.99;85.44
75991;BME280;64673;52.276;10.560;2023-02-16T03:35:36;101509.22;;;1.92;85.73
75991;BME280;64673;52.276;10.560;2023-02-16T03:38:02;101519.63;;;2.08;85.27
75991;BME280;64673;52.276;10.560;2023-02-16T03:40:29;101515.81;;;1.96;85.71
75991;BME280;64673;52.276;10.560;2023-02-16T03:43:03;101512.78;;;1.99;85.62
75991;BME280;64673;52.276;10.560;2023-02-16T03:45:31;101518.09;;;1.99;86.28
75991;BME280;64673;52.276;10.560;2023-02-16T03:47:59;101518.66;;;2.16;85.01
75991;BME280;64673;52.276;10.560;2023-02-16T03:50:24;101520.50;;;2.15;85.71
75991;BME280;64673;52.276;10.560;2023-02-16T03:52:51;101514.66;;;2.05;85.60
75991;BME280;64673;52.276;10.560;2023-02-16T03:55:17;101515.81;;;1.96;85.64
75991;BME280;64673;52.276;10.560;2023-02-16T03:57:42;101519.84;;;1.92;85.53
75991;BME280;64673;52.276;10.560;2023-02-16T04:00:08;101519.25;;;1.90;85.45
75991;BME280;64673;52.276;10.560;2023-02-16T04:02:33;101519.66;;;1.72;85.91
75991;BME280;64673;52.276;10.560;2023-02-16T04:04:59;101519.22;;;1.69;86.49
75991;BME280;64673;52.276;10.560;2023-02-16T04:07:24;101517.19;;;2.13;84.90
75991;BME280;64673;52.276;10.560;2023-02-16T04:09:49;101516.81;;;1.95;84.98
75991;BME280;64673;52.276;10.560;2023-02-16T04:12:15;101517.09;;;2.00;85.97
75991;BME280;64673;52.276;10.560;2023-02-16T04:14:58;101516.44;;;1.77;85.21
75991;BME280;64673;52.276;10.560;2023-02-16T04:17:24;101519.66;;;1.72;86.02
75991;BME280;64673;52.276;10.560;2023-02-16T04:19:49;101517.47;;;1.61;86.03
75991;BME280;64673;52.276;10.560;2023-02-16T04:22:15;101519.75;;;1.64;86.49
75991;BME280;64673;52.276;10.560;2023-02-16T04:24:40;101513.44;;;1.65;86.85
75991;BME280;64673;52.276;10.560;2023-02-16T04:27:05;101516.81;;;1.74;87.32
75991;BME280;64673;52.276;10.560;2023-02-16T04:29:31;101518.00;;;1.71;86.81
75991;BME280;64673;52.276;10.560;2023-02-16T04:31:56;101519.09;;;1.77;86.63
75991;BME280;64673;52.276;10.560;2023-02-16T04:34:21;101514.41;;;1.79;86.43
75991;BME280;64673;52.276;10.560;2023-02-16T04:36:47;101512.88;;;1.91;86.46
75991;BME280;64673;52.276;10.560;2023-02-16T04:39:12;101514.16;;;1.95;86.10
75991;BME280;64673;52.276;10.560;2023-02-16T04:41:37;101510.34;;;1.83;86.53
75991;BME280;64673;52.276;10.560;2023-02-16T04:44:03;101517.56;;;1.68;86.59
75991;BME280;64673;52.276;10.560;2023-02-16T04:46:28;101517.56;;;1.68;87.62
75991;BME280;64673;52.276;10.560;2023-02-16T04:48:55;101509.19;;;1.71;87.41
75991;BME280;64673;52.276;10.560;2023-02-16T04:51:20;101497.03;;;1.62;86.62
75991;BME280;64673;52.276;10.560;2023-02-16T04:53:46;101509.59;;;1.68;87.11
75991;BME280;64673;52.276;10.560;2023-02-16T04:56:11;101507.28;;;1.65;87.19
75991;BME280;64673;52.276;10.560;2023-02-16T04:58:37;101510.59;;;1.67;86.94
75991;BME280;64673;52.276;10.560;2023-02-16T05:01:02;101509.69;;;1.60;87.35
75991;BME280;64673;52.276;10.560;2023-02-16T05:03:27;101507.34;;;1.71;87.43
75991;BME280;64673;52.276;10.560;2023-02-16T05:05:53;101500.09;;;1.59;87.86
75991;BME280;64673;52.276;10.560;2023-02-16T05:08:18;101501.66;;;1.74;87.38
75991;BME280;64673;52.276;10.560;2023-02-16T05:10:43;101507.81;;;1.75;87.17
75991;BME280;64673;52.276;10.560;2023-02-16T05:13:10;101493.13;;;1.79;86.70
75991;BME280;64673;52.276;10.560;2023-02-16T05:15:53;101487.88;;;1.86;86.37
75991;BME280;64673;52.276;10.560;2023-02-16T05:18:20;101487.41;;;2.03;86.02
75991;BME280;64673;52.276;10.560;2023-02-16T05:20:45;101496.03;;;2.05;86.06
75991;BME280;64673;52.276;10.560;2023-02-16T05:23:29;101484.03;;;1.88;87.12
75991;BME280;64673;52.276;10.560;2023-02-16T05:25:54;101495.81;;;2.00;86.54
75991;BME280;64673;52.276;10.560;2023-02-16T05:28:20;101489.16;;;2.11;86.14
75991;BME280;64673;52.276;10.560;2023-02-16T05:30:45;101489.06;;;2.26;85.63
75991;BME280;64673;52.276;10.560;2023-02-16T05:33:10;101490.31;;;2.30;84.62
75991;BME280;64673;52.276;10.560;2023-02-16T05:35:36;101497.72;;;2.34;85.18
75991;BME280;64673;52.276;10.560;2023-02-16T05:38:01;101486.66;;;2.31;84.29
75991;BME280;64673;52.276;10.560;2023-02-16T05:40:27;101489.81;;;2.41;84.87
75991;BME280;64673;52.276;10.560;2023-02-16T05:42:53;101488.69;;;2.29;84.79
75991;BME280;64673;52.276;10.560;2023-02-16T05:45:19;101489.31;;;2.31;85.16
75991;BME280;64673;52.276;10.560;2023-02-16T05:47:44;101484.38;;;2.06;85.46
75991;BME280;64673;52.276;10.560;2023-02-16T05:50:10;101482.47;;;2.22;84.88
75991;BME280;64673;52.276;10.560;2023-02-16T05:52:36;101486.34;;;2.47;84.38
75991;BME280;64673;52.276;10.560;2023-02-16T05:55:02;101486.34;;;2.47;84.25
75991;BME280;64673;52.276;10.560;2023-02-16T05:57:27;101484.66;;;2.39;84.59
75991;BME280;64673;52.276;10.560;2023-02-16T05:59:52;101488.00;;;2.48;83.80
75991;BME280;64673;52.276;10.560;2023-02-16T06:02:18;101481.44;;;2.22;85.04
75991;BME280;64673;52.276;10.560;2023-02-16T06:04:43;101492.63;;;2.11;85.38
75991;BME280;64673;52.276;10.560;2023-02-16T06:07:09;101501.00;;;2.08;85.97
75991;BME280;64673;52.276;10.560;2023-02-16T06:09:34;101505.22;;;2.03;85.43
75991;BME280;64673;52.276;10.560;2023-02-16T06:11:59;101502.63;;;1.88;86.08
75991;BME280;64673;52.276;10.560;2023-02-16T06:14:25;101510.16;;;1.84;86.08
75991;BME280;64673;52.276;10.560;2023-02-16T06:16:50;101507.94;;;1.67;86.54
75991;BME280;64673;52.276;10.560;2023-02-16T06:19:16;101513.09;;;1.54;87.17
75991;BME280;64673;52.276;10.560;2023-02-16T06:21:42;101509.75;;;1.30;87.51
75991;BME280;64673;52.276;10.560;2023-02-16T06:24:10;101516.53;;;1.18;87.51
75991;BME280;64673;52.276;10.560;2023-02-16T06:26:36;101521.03;;;1.18;88.14
75991;BME280;64673;52.276;10.560;2023-02-16T06:29:02;101517.22;;;1.56;88.41
75991;BME280;64673;52.276;10.560;2023-02-16T06:31:27;101510.38;;;1.47;87.88
75991;BME280;64673;52.276;10.560;2023-02-16T06:33:53;101509.00;;;1.36;87.77
75991;BME280;64673;52.276;10.560;2023-02-16T06:36:18;101499.00;;;1.38;87.77
75991;BME280;64673;52.276;10.560;2023-02-16T06:38:44;101502.59;;;1.31;87.11
75991;BME280;64673;52.276;10.560;2023-02-16T06:41:10;101509.56;;;1.32;87.64
75991;BME280;64673;52.276;10.560;2023-02-16T06:43:35;101502.34;;;1.62;86.68
75991;BME280;64673;52.276;10.560;2023-02-16T06:46:00;101511.63;;;1.87;86.29
75991;BME280;64673;52.276;10.560;2023-02-16T06:48:26;101514.63;;;1.63;86.61
75991;BME280;64673;52.276;10.560;2023-02-16T06:50:51;101515.66;;;1.83;85.30
75991;BME280;64673;52.276;10.560;2023-02-16T06:53:17;101517.44;;;1.76;86.57
75991;BME280;64673;52.276;10.560;2023-02-16T06:55:42;101510.84;;;1.93;85.50
75991;BME280;64673;52.276;10.560;2023-02-16T06:58:08;101516.31;;;1.85;85.66
75991;BME280;64673;52.276;10.560;2023-02-16T07:00:34;101514.19;;;1.80;86.07
75991;BME280;64673;52.276;10.560;2023-02-16T07:02:59;101515.91;;;1.67;86.20
75991;BME280;64673;52.276;10.560;2023-02-16T07:05:25;101511.78;;;1.64;86.29
75991;BME280;64673;52.276;10.560;2023-02-16T07:07:50;101519.84;;;1.92;85.66
75991;BME280;64673;52.276;10.560;2023-02-16T07:10:16;101519.25;;;1.90;85.59
75991;BME280;64673;52.276;10.560;2023-02-16T07:12:41;101520.63;;;2.07;84.99
75991;BME280;64673;52.276;10.560;2023-02-16T07:15:08;101520.88;;;2.12;85.27
75991;BME280;64673;52.276;10.560;2023-02-16T07:17:35;101516.94;;;2.08;84.63
75991;BME280;64673;52.276;10.560;2023-02-16T07:20:00;101517.31;;;2.27;84.14
75991;BME280;64673;52.276;10.560;2023-02-16T07:22:25;101507.53;;;2.34;84.16
75991;BME280;64673;52.276;10.560;2023-02-16T07:24:51;101515.91;;;2.52;83.41
75991;BME280;64673;52.276;10.560;2023-02-16T07:27:16;101520.16;;;2.74;82.07
75991;BME280;64673;52.276;10.560;2023-02-16T07:29:41;101518.38;;;2.88;81.10
75991;BME280;64673;52.276;10.560;2023-02-16T07:32:08;101515.38;;;2.98;80.69
75991;BME280;64673;52.276;10.560;2023-02-16T07:34:33;101509.63;;;2.94;81.57
75991;BME280;64673;52.276;10.560;2023-02-16T07:36:59;101517.06;;;3.05;80.34
75991;BME280;64673;52.276;10.560;2023-02-16T07:39:24;101522.88;;;3.15;81.44
75991;BME280;64673;52.276;10.560;2023-02-16T07:41:50;101522.63;;;3.10;80.74
75991;BME280;64673;52.276;10.560;2023-02-16T07:44:15;101524.53;;;3.23;80.13
75991;BME280;64673;52.276;10.560;2023-02-16T07:46:40;101523.53;;;3.30;79.83
75991;BME280;64673;52.276;10.560;2023-02-16T07:49:06;101526.66;;;3.34;79.00
75991;BME280;64673;52.276;10.560;2023-02-16T07:51:31;101518.50;;;3.49;78.06
75991;BME280;64673;52.276;10.560;2023-02-16T07:53:58;101520.50;;;3.40;78.70
75991;BME280;64673;52.276;10.560;2023-02-16T07:56:27;101518.91;;;3.46;79.18
75991;BME280;64673;52.276;10.560;2023-02-16T07:58:54;101520.13;;;3.50;78.84
75991;BME280;64673;52.276;10.560;2023-02-16T08:01:20;101518.09;;;3.52;78.03
75991;BME280;64673;52.276;10.560;2023-02-16T08:03:46;101529.38;;;3.47;78.35
75991;BME280;64673;52.276;10.560;2023-02-16T08:06:12;101530.19;;;3.48;78.60
75991;BME280;64673;52.276;10.560;2023-02-16T08:08:38;101530.22;;;3.54;77.69
75991;BME280;64673;52.276;10.560;2023-02-16T08:11:23;101529.00;;;3.57;78.56
75991;BME280;64673;52.276;10.560;2023-02-16T08:13:49;101533.34;;;3.64;77.95
75991;BME280;64673;52.276;10.560;2023-02-16T08:16:21;101528.44;;;3.75;77.34
75991;BME280;64673;52.276;10.560;2023-02-16T08:18:46;101532.13;;;3.74;78.53
75991;BME280;64673;52.276;10.560;2023-02-16T08:21:15;101528.03;;;3.78;78.15
75991;BME280;64673;52.276;10.560;2023-02-16T08:23:46;101532.75;;;3.82;77.94
75991;BME280;64673;52.276;10.560;2023-02-16T08:26:14;101533.81;;;3.88;76.93
75991;BME280;64673;52.276;10.560;2023-02-16T08:28:41;101534.84;;;3.93;77.64
75991;BME280;64673;52.276;10.560;2023-02-16T08:31:13;101525.03;;;4.00;76.83
75991;BME280;64673;52.276;10.560;2023-02-16T08:33:39;101516.22;;;4.13;76.28
75991;BME280;64673;52.276;10.560;2023-02-16T08:36:05;101517.44;;;4.30;75.69
75991;BME280;64673;52.276;10.560;2023-02-16T08:38:35;101521.16;;;4.29;76.45
75991;BME280;64673;52.276;10.560;2023-02-16T08:41:00;101520.13;;;4.30;75.74
75991;BME280;64673;52.276;10.560;2023-02-16T08:43:26;101522.19;;;4.41;76.03
75991;BME280;64673;52.276;10.560;2023-02-16T08:45:51;101530.81;;;4.44;75.13
75991;BME280;64673;52.276;10.560;2023-02-16T08:48:17;101531.66;;;4.44;76.00
75991;BME280;64673;52.276;10.560;2023-02-16T08:50:44;101526.28;;;4.37;76.02
75991;BME280;64673;52.276;10.560;2023-02-16T08:53:12;101542.72;;;4.61;74.51
75991;BME280;64673;52.276;10.560;2023-02-16T08:55:38;101540.06;;;4.61;73.31
75991;BME280;64673;52.276;10.560;2023-02-16T08:58:03;101530.56;;;4.78;73.84
75991;BME280;64673;52.276;10.560;2023-02-16T09:00:31;101533.47;;;4.70;73.86
75991;BME280;64673;52.276;10.560;2023-02-16T09:02:59;101530.16;;;4.81;73.70
75991;BME280;64673;52.276;10.560;2023-02-16T09:05:25;101528.06;;;5.03;74.59
75991;BME280;64673;52.276;10.560;2023-02-16T09:07:52;101523.34;;;4.98;73.68
75991;BME280;64673;52.276;10.560;2023-02-16T09:10:18;101514.06;;;5.14;73.20
75991;BME280;64673;52.276;10.560;2023-02-16T09:12:43;101514.88;;;5.14;74.02
75991;BME280;64673;52.276;10.560;2023-02-16T09:15:13;101519.84;;;5.04;72.65
75991;BME280;64673;52.276;10.560;2023-02-16T09:17:40;101522.50;;;5.11;72.15
75991;BME280;64673;52.276;10.560;2023-02-16T09:20:07;101524.97;;;5.19;72.59
75991;BME280;64673;52.276;10.560;2023-02-16T09:22:32;101518.56;;;5.20;72.50
75991;BME280;64673;52.276;10.560;2023-02-16T09:24:58;101528.84;;;5.23;71.36
75991;BME280;64673;52.276;10.560;2023-02-16T09:27:23;101529.88;;;5.29;73.02
75991;BME280;64673;52.276;10.560;2023-02-16T09:29:49;101533.28;;;5.49;71.93
75991;BME280;64673;52.276;10.560;2023-02-16T09:32:15;101529.34;;;5.51;70.50
75991;BME280;64673;52.276;10.560;2023-02-16T09:34:41;101520.59;;;5.76;71.54
75991;BME280;64673;52.276;10.560;2023-02-16T09:37:09;101517.22;;;5.94;70.12
75991;BME280;64673;52.276;10.560;2023-02-16T09:39:34;101526.09;;;5.87;69.63
75991;BME280;64673;52.276;10.560;2023-02-16T09:42:14;101522.50;;;6.07;68.79
75991;BME280;64673;52.276;10.560;2023-02-16T09:45:05;101519.81;;;6.07;70.35
75991;BME280;64673;52.276;10.560;2023-02-16T09:47:36;101512.34;;;6.15;69.79
75991;BME280;64673;52.276;10.560;2023-02-16T09:50:21;101503.47;;;6.15;68.51
75991;BME280;64673;52.276;10.560;2023-02-16T09:53:39;101510.25;;;6.24;68.21
75991;BME280;64673;52.276;10.560;2023-02-16T09:55:53;101502.56;;;6.52;68.19
75991;BME280;64673;52.276;10.560;2023-02-16T09:58:30;101490.97;;;6.58;68.72
75991;BME280;64673;52.276;10.560;2023-02-16T10:01:06;101492.81;;;6.83;68.47
75991;BME280;64673;52.276;10.560;2023-02-16T10:04:06;101498.53;;;7.23;67.02
75991;BME280;64673;52.276;10.560;2023-02-16T10:06:44;101509.03;;;7.43;65.25
75991;BME280;64673;52.276;10.560;2023-02-16T10:09:16;101501.88;;;7.55;65.00
75991;BME280;64673;52.276;10.560;2023-02-16T10:11:55;101497.69;;;7.59;64.63
75991;BME280;64673;52.276;10.560;2023-02-16T10:14:44;101510.66;;;7.92;63.71
75991;BME280;64673;52.276;10.560;2023-02-16T10:17:38;101516.53;;;8.00;63.45
75991;BME280;64673;52.276;10.560;2023-02-16T10:23:12;101506.97;;;8.04;63.50
75991;BME280;64673;52.276;10.560;2023-02-16T10:25:47;101514.25;;;8.16;62.81
75991;BME280;64673;52.276;10.560;2023-02-16T10:28:19;101513.06;;;8.12;62.63
75991;BME280;64673;52.276;10.560;2023-02-16T10:31:07;101515.88;;;8.17;63.67
75991;BME280;64673;52.276;10.560;2023-02-16T10:33:43;101515.50;;;8.43;63.46
75991;BME280;64673;52.276;10.560;2023-02-16T10:44:41;101506.63;;;8.54;60.15
75991;BME280;64673;52.276;10.560;2023-02-16T10:47:32;101506.63;;;8.54;60.51
75991;BME280;64673;52.276;10.560;2023-02-16T10:49:58;101521.22;;;8.58;59.90
75991;BME280;64673;52.276;10.560;2023-02-16T10:52:28;101509.56;;;8.76;61.65
75991;BME280;64673;52.276;10.560;2023-02-16T10:54:55;101513.28;;;8.87;60.17
75991;BME280;64673;52.276;10.560;2023-02-16T10:57:31;101501.00;;;8.44;59.59
75991;BME280;64673;52.276;10.560;2023-02-16T10:59:58;101513.28;;;8.52;60.49
75991;BME280;64673;52.276;10.560;2023-02-16T11:02:38;101511.88;;;8.07;61.61
75991;BME280;64673;52.276;10.560;2023-02-16T11:07:54;101512.00;;;8.13;61.85
75991;BME280;64673;52.276;10.560;2023-02-16T11:10:34;101511.28;;;7.94;62.12
75991;BME280;64673;52.276;10.560;2023-02-16T11:13:01;101504.22;;;8.23;62.93
75991;BME280;64673;52.276;10.560;2023-02-16T11:15:27;101506.34;;;7.91;62.50
75991;BME280;64673;52.276;10.560;2023-02-16T11:17:58;101505.41;;;7.97;62.77
75991;BME280;64673;52.276;10.560;2023-02-16T11:20:32;101490.41;;;7.78;62.67
75991;BME280;64673;52.276;10.560;2023-02-16T11:25:52;101485.34;;;7.99;63.47
75991;BME280;64673;52.276;10.560;2023-02-16T11:28:28;101478.94;;;8.00;62.80
75991;BME280;64673;52.276;10.560;2023-02-16T11:31:20;101484.69;;;8.16;63.86
75991;BME280;64673;52.276;10.560;2023-02-16T11:34:21;101469.38;;;8.04;62.21
75991;BME280;64673;52.276;10.560;2023-02-16T11:36:50;101479.09;;;8.29;62.96
75991;BME280;64673;52.276;10.560;2023-02-16T11:39:27;101475.81;;;8.15;62.19
75991;BME280;64673;52.276;10.560;2023-02-16T11:42:01;101475.56;;;8.17;61.53
75991;BME280;64673;52.276;10.560;2023-02-16T11:44:40;101477.34;;;8.23;61.70
75991;BME280;64673;52.276;10.560;2023-02-16T11:47:30;101481.06;;;8.22;61.96
75991;BME280;64673;52.276;10.560;2023-02-16T11:50:22;101488.19;;;8.28;61.39
75991;BME280;64673;52.276;10.560;2023-02-16T11:52:52;101484.69;;;8.27;62.29
75991;BME280;64673;52.276;10.560;2023-02-16T11:55:27;101486.66;;;8.08;62.14
75991;BME280;64673;52.276;10.560;2023-02-16T11:58:12;101482.34;;;8.19;62.38
75991;BME280;64673;52.276;10.560;2023-02-16T12:00:40;101482.13;;;8.21;62.80
75991;BME280;64673;52.276;10.560;2023-02-16T12:03:29;101492.72;;;8.04;63.04
75991;BME280;64673;52.276;10.560;2023-02-16T12:06:30;101486.13;;;7.88;63.03
75991;BME280;64673;52.276;10.560;2023-02-16T12:09:14;101487.81;;;8.01;64.32
75991;BME280;64673;52.276;10.560;2023-02-16T12:17:15;101472.16;;;8.09;63.13
75991;BME280;64673;52.276;10.560;2023-02-16T12:19:48;101472.50;;;8.01;62.55
75991;BME280;64673;52.276;10.560;2023-02-16T12:22:42;101473.66;;;7.94;62.59
75991;BME280;64673;52.276;10.560;2023-02-16T12:30:38;101465.31;;;7.72;64.01
75991;BME280;64673;52.276;10.560;2023-02-16T12:33:25;101461.72;;;7.90;63.91
75991;BME280;64673;52.276;10.560;2023-02-16T12:38:50;101478.28;;;7.87;64.01
75991;BME280;64673;52.276;10.560;2023-02-16T12:43:46;101463.97;;;7.93;63.50
75991;BME280;64673;52.276;10.560;2023-02-16T12:46:34;101474.13;;;7.91;63.34
75991;BME280;64673;52.276;10.560;2023-02-16T12:49:13;101482.72;;;7.81;63.94
75991;BME280;64673;52.276;10.560;2023-02-16T12:51:53;101477.75;;;8.08;63.23
75991;BME280;64673;52.276;10.560;2023-02-16T12:54:26;101469.47;;;8.09;63.66
75991;BME280;64673;52.276;10.560;2023-02-16T12:57:02;101461.41;;;8.09;64.65
75991;BME280;64673;52.276;10.560;2023-02-16T12:59:38;101469.72;;;8.20;63.56
75991;BME280;64673;52.276;10.560;2023-02-16T13:02:31;101466.22;;;8.19;62.18
75991;BME280;64673;52.276;10.560;2023-02-16T13:04:57;101475.69;;;8.22;64.18
75991;BME280;64673;52.276;10.560;2023-02-16T13:07:37;101467.97;;;8.14;63.78
75991;BME280;64673;52.276;10.560;2023-02-16T13:10:22;101471.91;;;7.99;63.90
75991;BME280;64673;52.276;10.560;2023-02-16T13:15:29;101465.75;;;7.69;63.98
75991;BME280;64673;52.276;10.560;2023-02-16T13:20:44;101455.78;;;7.99;64.09
75991;BME280;64673;52.276;10.560;2023-02-16T13:34:18;101441.78;;;7.97;63.63
75991;BME280;64673;52.276;10.560;2023-02-16T13:40:15;101430.72;;;8.29;63.35
75991;BME280;64673;52.276;10.560;2023-02-16T13:43:10;101419.13;;;8.17;63.03
75991;BME280;64673;52.276;10.560;2023-02-16T13:45:41;101422.91;;;8.16;63.33
75991;BME280;64673;52.276;10.560;2023-02-16T13:48:19;101420.44;;;8.14;62.63
75991;BME280;64673;52.276;10.560;2023-02-16T13:50:57;101410.03;;;8.18;63.44
75991;BME280;64673;52.276;10.560;2023-02-16T13:53:24;101410.38;;;8.21;63.57
75991;BME280;64673;52.276;10.560;2023-02-16T13:56:22;101403.72;;;8.24;63.07
75991;BME280;64673;52.276;10.560;2023-02-16T14:01:48;101413.69;;;8.47;64.72
75991;BME280;64673;52.276;10.560;2023-02-16T14:06:45;101408.63;;;8.27;63.48
75991;BME280;64673;52.276;10.560;2023-02-16T14:14:31;101400.38;;;8.40;63.70
75991;BME280;64673;52.276;10.560;2023-02-16T14:22:37;101396.16;;;8.32;64.83
75991;BME280;64673;52.276;10.560;2023-02-16T14:30:48;101395.22;;;8.38;63.93
75991;BME280;64673;52.276;10.560;2023-02-16T14:38:34;101381.06;;;8.20;67.31
75991;BME280;64673;52.276;10.560;2023-02-16T14:41:04;101392.03;;;8.30;66.69
75991;BME280;64673;52.276;10.560;2023-02-16T14:43:43;101380.03;;;8.32;66.07
75991;BME280;64673;52.276;10.560;2023-02-16T14:52:17;101369.50;;;8.31;66.65
75991;BME280;64673;52.276;10.560;2023-02-16T14:55:14;101367.66;;;8.31;65.93
75991;BME280;64673;52.276;10.560;2023-02-16T15:00:23;101362.63;;;8.35;66.70
75991;BME280;64673;52.276;10.560;2023-02-16T15:03:14;101356.06;;;8.31;66.59
75991;BME280;64673;52.276;10.560;2023-02-16T15:05:40;101354.22;;;8.31;66.38
75991;BME280;64673;52.276;10.560;2023-02-16T15:08:20;101362.50;;;8.53;64.55